Time;durP1;ratioP1;P1;durP2;ratioP2;P2;SDS_P1;SDS_P2;PMS_P1;PMS_P2;Temp;Humidity;BMP_temperature;BMP_pressure;BME280_temperature;BME280_humidity;BME280_pressure;Samples;Min_cycle;Max_cycle;Signal;HPM_P1;HPM_P2
2021/11/30 00:01:23;;;;;;;70.07;45.38;;;21.70;93.40;;;;;;4179380;28;20048;-71
2021/11/30 00:03:47;;;;;;;68.90;44.65;;;21.60;93.60;;;;;;4180391;28;20539;-71
2021/11/30 00:05:52;;;;;;;68.85;45.53;;;21.60;93.50;;;;;;4192924;28;20566;-72
2021/11/30 00:08:16;;;;;;;69.35;45.40;;;21.60;93.70;;;;;;4180450;28;20064;-70
2021/11/30 00:10:45;;;;;;;67.03;46.35;;;21.70;93.70;;;;;;4180108;28;20056;-70
2021/11/30 00:12:49;;;;;;;75.28;49.30;;;21.80;93.30;;;;;;4176745;28;20090;-70
2021/11/30 00:15:12;;;;;;;60.25;42.08;;;21.70;93.50;;;;;;4191037;28;20091;-70
2021/11/30 00:17:17;;;;;;;54.88;36.20;;;21.80;93.30;;;;;;4192046;28;20059;-73
2021/11/30 00:19:41;;;;;;;47.67;33.20;;;21.60;93.60;;;;;;4173682;28;20087;-70
2021/11/30 00:21:45;;;;;;;50.60;31.55;;;21.70;93.50;;;;;;4188936;28;20039;-71
2021/11/30 00:24:10;;;;;;;42.10;28.45;;;21.80;93.30;;;;;;4177417;28;20495;-71
2021/11/30 00:26:34;;;;;;;41.92;26.60;;;21.90;93.40;;;;;;4176945;28;20139;-71
2021/11/30 00:28:40;;;;;;;38.88;25.00;;;21.90;93.40;;;;;;4197260;28;20507;-72
2021/11/30 00:30:44;;;;;;;39.28;26.00;;;22.00;93.30;;;;;;4195792;28;20379;-71
2021/11/30 00:33:08;;;;;;;45.65;26.92;;;21.90;93.40;;;;;;4179840;28;20060;-71
2021/11/30 00:35:33;;;;;;;38.72;26.17;;;21.90;93.40;;;;;;4179412;28;20083;-71
2021/11/30 00:37:57;;;;;;;47.22;26.60;;;22.10;93.00;;;;;;4178817;28;20095;-72
2021/11/30 00:40:02;;;;;;;37.03;25.38;;;22.30;92.80;;;;;;4179576;28;20063;-71
2021/11/30 00:42:26;;;;;;;49.00;29.77;;;22.20;92.90;;;;;;4163787;28;20087;-71
2021/11/30 00:44:35;;;;;;;43.90;28.42;;;22.30;92.80;;;;;;4192587;28;20041;-69
2021/11/30 00:46:59;;;;;;;48.17;27.98;;;22.30;93.00;;;;;;4181682;28;20057;-69
2021/11/30 00:49:25;;;;;;;46.72;26.17;;;22.20;92.90;;;;;;4197531;28;20063;-69
2021/11/30 00:51:50;;;;;;;39.90;24.60;;;22.30;92.80;;;;;;4169031;28;20515;-70
2021/11/30 00:53:54;;;;;;;36.30;23.55;;;22.30;92.80;;;;;;4195046;28;20052;-69
2021/11/30 00:55:58;;;;;;;34.47;22.60;;;22.40;92.80;;;;;;4194299;28;20036;-69
2021/11/30 00:58:23;;;;;;;34.97;20.67;;;22.50;92.20;;;;;;4180462;28;20403;-69
2021/11/30 01:00:27;;;;;;;31.10;20.05;;;22.40;92.60;;;;;;4195466;28;20041;-69
2021/11/30 01:02:51;;;;;;;34.70;18.13;;;22.50;92.20;;;;;;4179992;28;20148;-70
2021/11/30 01:05:16;;;;;;;29.15;18.85;;;22.40;91.50;;;;;;4180061;28;20056;-69
2021/11/30 01:07:21;;;;;;;29.77;18.17;;;22.50;91.60;;;;;;4195153;28;20045;-69
2021/11/30 01:09:46;;;;;;;28.92;18.13;;;22.60;91.40;;;;;;4179936;28;20095;-71
2021/11/30 01:11:50;;;;;;;29.95;17.73;;;22.80;91.20;;;;;;4192145;28;20521;-71
2021/11/30 01:14:15;;;;;;;30.13;18.33;;;22.90;91.00;;;;;;4178480;28;20071;-71
2021/11/30 01:16:39;;;;;;;36.85;17.92;;;22.80;90.80;;;;;;4179303;28;20049;-71
2021/11/30 01:18:44;;;;;;;25.83;16.52;;;22.80;90.90;;;;;;4192169;28;20564;-71
2021/11/30 01:21:09;;;;;;;23.25;16.42;;;22.90;90.70;;;;;;4179045;28;20702;-71
2021/11/30 01:23:13;;;;;;;24.83;17.83;;;23.20;90.40;;;;;;4195663;28;20040;-72
2021/11/30 01:25:37;;;;;;;25.48;16.15;;;23.30;90.40;;;;;;4178428;28;20045;-71
2021/11/30 01:27:42;;;;;;;23.35;15.88;;;23.30;89.40;;;;;;4194307;28;20395;-70
2021/11/30 01:30:07;;;;;;;27.15;15.52;;;23.30;89.00;;;;;;4177625;28;20048;-71
2021/11/30 01:32:12;;;;;;;28.40;15.35;;;23.40;89.20;;;;;;4193720;28;20045;-70
2021/11/30 01:34:16;;;;;;;22.85;15.27;;;23.50;88.40;;;;;;4194394;28;20404;-72
2021/11/30 01:36:20;;;;;;;21.80;15.13;;;23.60;87.80;;;;;;4193812;28;20037;-71
2021/11/30 01:38:26;;;;;;;23.63;14.90;;;23.60;87.50;;;;;;4192124;28;20502;-70
2021/11/30 01:40:31;;;;;;;24.17;15.48;;;23.60;87.20;;;;;;4194310;28;20529;-69
2021/11/30 01:42:35;;;;;;;23.30;14.68;;;23.60;87.40;;;;;;4191354;28;20070;-70
2021/11/30 01:45:02;;;;;;;25.40;15.35;;;23.50;87.60;;;;;;4192723;28;20041;-70
2021/11/30 01:49:35;;;;;;;21.38;15.02;;;23.70;87.40;;;;;;4197640;28;20052;-70
2021/11/30 01:51:59;;;;;;;26.42;14.52;;;23.70;87.00;;;;;;4195571;28;20052;-71
2021/11/30 01:54:23;;;;;;;25.15;15.20;;;23.70;86.90;;;;;;4177331;28;20076;-70
2021/11/30 01:56:47;;;;;;;24.67;15.18;;;23.80;87.10;;;;;;4163318;28;20057;-70
2021/11/30 01:58:52;;;;;;;20.35;15.13;;;23.90;86.20;;;;;;4183280;28;20051;-70
2021/11/30 02:00:56;;;;;;;20.45;13.95;;;23.90;85.60;;;;;;4194336;28;20056;-70
2021/11/30 02:03:05;;;;;;;20.92;14.27;;;24.00;85.50;;;;;;4195316;28;20098;-71
2021/11/30 02:05:10;;;;;;;24.52;13.80;;;24.00;85.30;;;;;;4196371;28;20053;-70
2021/11/30 02:07:15;;;;;;;24.10;12.90;;;24.10;85.20;;;;;;4197948;28;20510;-70
2021/11/30 02:09:40;;;;;;;23.05;14.00;;;24.20;83.10;;;;;;4167040;28;20057;-70
2021/11/30 02:12:04;;;;;;;23.75;14.05;;;24.10;83.30;;;;;;4182516;28;20079;-70
2021/11/30 02:14:09;;;;;;;25.65;14.05;;;24.20;83.50;;;;;;4197996;28;20295;-71
2021/11/30 02:16:16;;;;;;;18.10;12.60;;;24.20;82.90;;;;;;4190676;28;20798;-70
2021/11/30 02:18:23;;;;;;;24.73;13.07;;;24.10;82.20;;;;;;4186903;28;20055;-71
2021/11/30 02:20:48;;;;;;;21.05;12.68;;;24.20;82.70;;;;;;4184119;28;20056;-70
2021/11/30 02:22:57;;;;;;;22.45;13.20;;;24.20;82.80;;;;;;4178700;28;20055;-70
2021/11/30 02:25:03;;;;;;;24.10;13.60;;;24.30;82.50;;;;;;4214321;28;20379;-70
2021/11/30 02:27:27;;;;;;;21.60;12.25;;;24.50;82.40;;;;;;4195874;28;20127;-71
2021/11/30 02:29:51;;;;;;;18.55;11.52;;;24.60;81.30;;;;;;4182375;28;20140;-70
2021/11/30 02:31:56;;;;;;;22.08;12.32;;;24.70;80.70;;;;;;4196083;28;20037;-71
2021/11/30 02:34:20;;;;;;;21.45;12.48;;;24.80;80.80;;;;;;4182040;28;20096;-71
2021/11/30 02:38:52;;;;;;;16.60;10.15;;;25.00;77.70;;;;;;4184162;28;20033;-70
2021/11/30 02:41:16;;;;;;;19.52;11.07;;;24.90;76.80;;;;;;4175725;28;20143;-70
2021/11/30 02:43:20;;;;;;;16.85;10.73;;;24.90;76.20;;;;;;4195870;28;20125;-70
2021/11/30 02:45:44;;;;;;;16.50;11.05;;;24.90;76.80;;;;;;4176332;28;20061;-70
2021/11/30 02:48:09;;;;;;;14.70;10.50;;;25.00;76.90;;;;;;4181167;28;20068;-70
2021/11/30 02:50:13;;;;;;;16.77;10.18;;;25.00;77.00;;;;;;4196419;28;20060;-70
2021/11/30 02:52:38;;;;;;;17.17;9.77;;;25.10;76.00;;;;;;4186206;28;20059;-70
2021/11/30 02:54:44;;;;;;;16.15;9.82;;;25.10;74.80;;;;;;4205089;28;20044;-70
2021/11/30 02:56:53;;;;;;;16.17;10.75;;;25.20;74.10;;;;;;4178745;28;20037;-70
2021/11/30 02:59:18;;;;;;;20.17;11.77;;;25.20;72.90;;;;;;4182444;28;20418;-70
2021/11/30 03:01:22;;;;;;;22.13;10.80;;;25.40;73.50;;;;;;4179274;28;20426;-72
2021/11/30 03:03:28;;;;;;;14.82;10.10;;;25.40;73.50;;;;;;4179064;28;20074;-71
2021/11/30 03:05:32;;;;;;;14.80;9.80;;;25.40;73.10;;;;;;4189430;28;20060;-70
2021/11/30 03:07:57;;;;;;;20.15;10.27;;;25.50;73.20;;;;;;4182914;28;20144;-71
2021/11/30 03:10:01;;;;;;;15.13;9.20;;;25.50;72.80;;;;;;4133225;28;20119;-71
2021/11/30 03:12:25;;;;;;;26.20;11.77;;;25.50;71.90;;;;;;4173291;28;20045;-70
2021/11/30 03:14:50;;;;;;;22.25;10.45;;;25.60;70.70;;;;;;4173665;28;20119;-70
2021/11/30 03:17:14;;;;;;;18.38;9.88;;;25.60;70.60;;;;;;4185060;28;20068;-71
2021/11/30 03:19:38;;;;;;;21.25;12.40;;;25.60;70.60;;;;;;4184000;28;20056;-70
2021/11/30 03:22:03;;;;;;;19.95;11.88;;;25.70;71.60;;;;;;4178078;28;20056;-70
2021/11/30 03:24:31;;;;;;;17.77;10.28;;;25.70;71.90;;;;;;2542599;28;10002498;-69
2021/11/30 03:26:55;;;;;;;18.63;11.07;;;25.80;70.00;;;;;;4175754;28;20100;-70
2021/11/30 03:29:20;;;;;;;20.63;10.52;;;25.80;69.90;;;;;;4177910;28;20041;-70
2021/11/30 03:32:06;;;;;;;14.83;9.42;;;25.90;69.20;;;;;;3804143;28;10001676;-68
2021/11/30 03:34:36;;;;;;;21.48;10.48;;;26.00;68.30;;;;;;3058669;28;10001688;-69
2021/11/30 03:37:07;;;;;;;17.51;10.00;;;26.10;68.00;;;;;;3538616;28;10001442;-70
2021/11/30 03:39:31;;;;;;;15.10;10.27;;;26.00;68.10;;;;;;3637770;28;10001307;-68
2021/11/30 03:41:56;;;;;;;22.52;10.30;;;26.10;68.00;;;;;;3820618;28;10001245;-70
2021/11/30 03:44:20;;;;;;;18.02;9.98;;;26.10;68.00;;;;;;3272011;28;10000956;-70
2021/11/30 03:46:44;;;;;;;19.23;10.57;;;26.20;69.10;;;;;;2411381;28;10001763;-70
2021/11/30 03:49:09;;;;;;;20.35;10.25;;;26.20;69.20;;;;;;4191577;28;20320;-70
2021/11/30 03:51:34;;;;;;;17.55;9.90;;;26.30;68.10;;;;;;3310670;28;10000701;-70
2021/11/30 03:53:58;;;;;;;17.63;10.30;;;26.30;67.00;;;;;;2380016;28;10001572;-70
2021/11/30 03:56:23;;;;;;;19.30;10.40;;;26.30;66.90;;;;;;4170744;28;20084;-70
2021/11/30 03:58:47;;;;;;;19.83;11.05;;;26.20;67.50;;;;;;4177525;28;20061;-70
2021/11/30 04:01:11;;;;;;;17.05;10.15;;;26.30;67.30;;;;;;4173853;28;20053;-70
2021/11/30 04:03:38;;;;;;;14.63;10.85;;;26.40;67.10;;;;;;4176013;28;20139;-70
2021/11/30 04:06:03;;;;;;;17.65;10.93;;;26.60;67.90;;;;;;4177651;28;20060;-70
2021/11/30 04:08:27;;;;;;;22.02;11.07;;;26.70;67.30;;;;;;4178490;28;20594;-70
2021/11/30 04:10:51;;;;;;;24.17;11.30;;;26.60;66.80;;;;;;4159352;28;20053;-70
2021/11/30 04:13:15;;;;;;;23.65;11.30;;;26.50;67.50;;;;;;4183924;28;20086;-70
2021/11/30 04:15:39;;;;;;;19.70;10.02;;;26.40;66.90;;;;;;4183136;28;20522;-70
2021/11/30 04:18:03;;;;;;;18.67;10.25;;;26.40;65.60;;;;;;4171826;28;20085;-70
2021/11/30 04:20:28;;;;;;;18.83;10.70;;;26.40;66.10;;;;;;4178736;28;20060;-70
2021/11/30 04:22:52;;;;;;;17.20;10.07;;;26.40;65.90;;;;;;4181012;28;20537;-70
2021/11/30 04:25:16;;;;;;;19.58;10.68;;;26.40;65.70;;;;;;4180829;28;20045;-69
2021/11/30 04:27:41;;;;;;;28.52;10.70;;;26.50;66.20;;;;;;4195587;28;20064;-70
2021/11/30 04:30:06;;;;;;;20.02;10.32;;;26.50;66.30;;;;;;4176037;28;20065;-70
2021/11/30 04:32:43;;;;;;;23.84;11.53;;;26.60;65.70;;;;;;2891120;28;10003095;-70
2021/11/30 04:35:08;;;;;;;20.33;11.15;;;26.60;65.90;;;;;;4164664;28;20053;-70
2021/11/30 04:37:33;;;;;;;17.50;11.38;;;26.60;65.80;;;;;;4179936;28;20120;-70
2021/11/30 04:39:57;;;;;;;19.20;10.73;;;26.60;66.20;;;;;;4165798;28;20069;-70
2021/11/30 04:42:26;;;;;;;23.42;11.27;;;26.70;66.50;;;;;;4177893;28;20089;-73
2021/11/30 04:44:55;;;;;;;21.60;11.07;;;26.80;66.50;;;;;;4179033;28;20049;-72
2021/11/30 04:47:20;;;;;;;19.33;10.70;;;26.90;65.80;;;;;;4178479;28;20143;-74
2021/11/30 04:52:21;;;;;;;20.08;11.93;;;26.90;64.90;;;;;;4180079;28;20082;-69
2021/11/30 04:54:46;;;;;;;22.50;11.45;;;27.00;65.50;;;;;;4195229;28;20106;-69
2021/11/30 04:57:10;;;;;;;17.50;10.73;;;27.10;64.60;;;;;;4180840;28;20110;-69
2021/11/30 04:59:35;;;;;;;18.27;10.80;;;27.10;64.20;;;;;;4179181;28;20061;-69
2021/11/30 05:01:59;;;;;;;27.05;9.60;;;27.10;64.10;;;;;;4178374;28;20049;-69
2021/11/30 05:04:23;;;;;;;14.68;9.57;;;27.10;62.80;;;;;;4175551;28;20120;-69
2021/11/30 05:06:47;;;;;;;14.05;9.48;;;27.20;63.40;;;;;;4173078;28;20453;-69
2021/11/30 05:09:11;;;;;;;18.77;8.93;;;27.20;62.20;;;;;;4170078;28;20056;-69
2021/11/30 05:11:37;;;;;;;17.17;9.05;;;27.20;62.60;;;;;;4176515;28;20063;-68
2021/11/30 05:14:01;;;;;;;18.67;9.50;;;27.20;62.60;;;;;;4181212;28;20304;-68
2021/11/30 05:16:26;;;;;;;20.90;9.00;;;27.30;61.80;;;;;;4177932;28;20541;-68
2021/11/30 05:18:50;;;;;;;17.27;8.52;;;27.30;62.70;;;;;;4163331;28;20037;-68
2021/11/30 05:21:14;;;;;;;21.70;9.23;;;27.30;63.20;;;;;;4171479;28;20049;-69
2021/11/30 05:23:40;;;;;;;18.50;9.07;;;27.30;63.20;;;;;;4171909;28;20052;-68
2021/11/30 05:26:05;;;;;;;15.13;8.57;;;27.30;62.20;;;;;;4172639;28;20163;-69
2021/11/30 05:28:30;;;;;;;12.88;8.60;;;27.30;62.80;;;;;;4179020;28;20114;-68
2021/11/30 05:30:55;;;;;;;19.52;8.30;;;27.30;62.10;;;;;;4168216;28;20708;-68
2021/11/30 05:33:19;;;;;;;19.25;9.30;;;27.40;61.80;;;;;;4178245;28;20056;-69
2021/11/30 05:35:44;;;;;;;17.13;8.50;;;27.40;61.80;;;;;;4178044;28;20049;-70
2021/11/30 05:38:08;;;;;;;13.88;8.35;;;27.40;63.00;;;;;;4169619;28;20099;-69
2021/11/30 05:40:32;;;;;;;18.52;9.73;;;27.40;61.20;;;;;;4164407;28;20057;-69
2021/11/30 05:42:57;;;;;;;22.77;9.35;;;27.40;61.10;;;;;;4177843;28;20454;-69
2021/11/30 05:45:21;;;;;;;15.02;9.45;;;27.40;61.40;;;;;;4178707;28;20140;-68
2021/11/30 05:47:46;;;;;;;12.98;8.95;;;27.40;61.60;;;;;;4177773;28;20040;-68
2021/11/30 05:50:10;;;;;;;20.40;8.85;;;27.50;62.60;;;;;;4175534;28;20046;-68
2021/11/30 05:52:35;;;;;;;17.60;8.52;;;27.50;61.70;;;;;;4178892;28;20045;-68
2021/11/30 05:54:59;;;;;;;24.95;9.18;;;27.60;61.70;;;;;;4178258;28;20067;-68
2021/11/30 05:57:24;;;;;;;14.15;8.35;;;27.60;61.30;;;;;;4177793;28;20519;-69
2021/11/30 05:59:48;;;;;;;27.27;9.13;;;27.60;61.00;;;;;;4171829;28;20381;-69
2021/11/30 06:02:12;;;;;;;25.30;9.98;;;27.70;60.70;;;;;;4170093;28;20844;-69
2021/11/30 06:04:37;;;;;;;19.15;8.57;;;27.70;60.70;;;;;;4175928;28;20087;-68
2021/11/30 06:07:02;;;;;;;21.70;9.00;;;27.70;61.20;;;;;;4178744;28;20075;-68
2021/11/30 06:09:26;;;;;;;16.60;10.15;;;27.60;60.90;;;;;;4178857;28;20163;-69
2021/11/30 06:11:51;;;;;;;16.35;9.23;;;27.70;61.30;;;;;;4169513;28;20041;-69
2021/11/30 06:14:15;;;;;;;12.32;8.38;;;27.60;61.00;;;;;;4175425;28;20052;-68
2021/11/30 06:16:39;;;;;;;15.45;10.23;;;27.60;61.20;;;;;;4169515;28;20049;-69
2021/11/30 06:19:04;;;;;;;20.80;12.27;;;27.70;61.40;;;;;;4173210;28;20065;-69
2021/11/30 06:21:28;;;;;;;14.88;9.18;;;27.60;61.30;;;;;;4175849;28;20045;-69
2021/11/30 06:23:53;;;;;;;19.20;9.45;;;27.70;61.40;;;;;;4173121;28;20135;-69
2021/11/30 06:26:17;;;;;;;17.90;9.30;;;27.80;62.50;;;;;;4177966;28;20087;-69
2021/11/30 06:28:42;;;;;;;16.42;8.57;;;27.70;61.00;;;;;;4169904;28;20052;-69
2021/11/30 06:31:06;;;;;;;15.13;8.57;;;27.70;61.20;;;;;;4177804;28;20144;-69
2021/11/30 06:33:31;;;;;;;12.80;8.20;;;27.70;61.50;;;;;;4192944;28;20156;-69
2021/11/30 06:35:55;;;;;;;16.63;8.73;;;27.70;61.40;;;;;;4165816;28;20778;-69
2021/11/30 06:38:19;;;;;;;14.63;8.35;;;27.60;61.10;;;;;;4174217;28;20503;-69
2021/11/30 06:40:43;;;;;;;17.02;8.75;;;27.70;60.90;;;;;;4176676;28;20132;-69
2021/11/30 06:43:07;;;;;;;17.20;8.63;;;27.70;62.00;;;;;;4163536;28;20107;-69
2021/11/30 06:45:31;;;;;;;20.10;9.07;;;27.80;62.40;;;;;;4172501;28;20486;-69
2021/11/30 06:47:56;;;;;;;14.80;8.27;;;27.90;61.50;;;;;;4177013;28;20095;-69
2021/11/30 06:50:20;;;;;;;17.70;9.10;;;28.00;60.90;;;;;;4171690;28;20056;-70
2021/11/30 06:52:48;;;;;;;15.95;8.27;;;28.00;61.20;;;;;;4179253;28;20047;-70
2021/11/30 06:55:12;;;;;;;17.45;9.48;;;28.00;61.60;;;;;;4175559;28;20182;-69
2021/11/30 06:57:36;;;;;;;12.70;7.95;;;28.10;61.60;;;;;;4179741;28;20049;-69
2021/11/30 07:00:04;;;;;;;14.63;8.68;;;28.20;61.60;;;;;;4175485;28;20053;-70
2021/11/30 07:02:29;;;;;;;17.83;9.35;;;28.20;61.50;;;;;;4173079;28;20338;-69
2021/11/30 07:05:05;;;;;;;14.00;9.35;;;28.20;61.70;;;;;;4182515;28;20133;-69
2021/11/30 07:07:46;;;;;;;18.40;9.07;;;28.20;61.90;;;;;;4179820;28;20519;-69
2021/11/30 07:15:37;;;;;;;17.10;9.38;;;28.00;62.10;;;;;;4181653;28;20088;-69
2021/11/30 07:18:02;;;;;;;15.38;8.55;;;28.00;62.00;;;;;;4180768;28;20499;-69
2021/11/30 07:20:27;;;;;;;15.95;8.77;;;28.10;61.10;;;;;;4179228;28;20065;-69
2021/11/30 07:22:56;;;;;;;17.77;9.30;;;28.20;61.60;;;;;;4183809;28;20111;-68
2021/11/30 07:25:20;;;;;;;17.80;8.98;;;28.20;62.30;;;;;;4173149;28;20053;-69
2021/11/30 07:27:44;;;;;;;20.38;9.25;;;28.20;61.80;;;;;;4180838;28;20063;-69
2021/11/30 07:30:08;;;;;;;15.13;9.35;;;28.30;62.30;;;;;;4177525;28;20048;-69
2021/11/30 07:32:33;;;;;;;14.82;8.75;;;28.30;61.80;;;;;;4174472;28;20060;-69
2021/11/30 07:34:58;;;;;;;23.10;10.20;;;28.30;61.70;;;;;;4180845;28;20412;-69
2021/11/30 07:37:22;;;;;;;20.20;9.65;;;28.30;61.90;;;;;;4180956;28;20033;-70
2021/11/30 07:39:48;;;;;;;15.95;9.52;;;28.30;62.10;;;;;;4170932;28;20106;-69
2021/11/30 07:42:12;;;;;;;14.20;8.52;;;28.30;62.50;;;;;;4176850;28;20057;-69
2021/11/30 07:44:36;;;;;;;16.65;9.43;;;28.40;62.40;;;;;;4179505;28;20049;-69
2021/11/30 07:47:00;;;;;;;12.07;9.10;;;28.40;62.20;;;;;;4164694;28;20065;-70
2021/11/30 07:49:25;;;;;;;19.77;9.80;;;28.40;62.30;;;;;;4175890;28;20072;-70
2021/11/30 07:51:49;;;;;;;18.90;9.63;;;28.40;62.40;;;;;;4179105;28;20089;-70
2021/11/30 07:54:14;;;;;;;16.20;9.50;;;28.40;62.50;;;;;;4167439;28;20041;-70
2021/11/30 07:56:39;;;;;;;17.27;9.45;;;28.40;62.70;;;;;;4172755;28;20598;-70
2021/11/30 07:59:03;;;;;;;15.65;9.77;;;28.40;62.40;;;;;;4193833;28;20063;-70
2021/11/30 08:01:27;;;;;;;16.95;10.05;;;28.50;62.40;;;;;;4180821;28;20095;-70
2021/11/30 08:03:52;;;;;;;17.33;9.75;;;28.50;62.40;;;;;;4188133;28;20068;-70
2021/11/30 08:06:16;;;;;;;16.98;8.75;;;28.40;62.70;;;;;;4178974;28;20132;-70
2021/11/30 08:08:41;;;;;;;14.70;9.38;;;28.50;62.20;;;;;;4179546;28;21265;-68
2021/11/30 08:11:06;;;;;;;16.40;9.27;;;28.50;62.90;;;;;;4178445;28;20048;-68
2021/11/30 08:13:31;;;;;;;24.88;9.50;;;28.50;61.90;;;;;;4178553;28;20051;-68
2021/11/30 08:15:55;;;;;;;19.40;9.32;;;28.50;62.20;;;;;;4175885;28;20421;-69
2021/11/30 08:18:19;;;;;;;17.30;10.02;;;28.40;61.90;;;;;;4179220;28;20053;-68
2021/11/30 08:20:43;;;;;;;19.20;9.85;;;28.40;62.30;;;;;;4177907;28;20051;-68
2021/11/30 08:23:07;;;;;;;20.20;10.07;;;28.40;62.70;;;;;;4180723;28;20044;-68
2021/11/30 08:25:31;;;;;;;17.48;9.38;;;28.50;63.30;;;;;;4163996;28;20761;-69
2021/11/30 08:27:56;;;;;;;16.90;9.90;;;28.50;63.30;;;;;;4173966;28;20056;-68
2021/11/30 08:30:41;;;;;;;14.95;8.80;;;28.40;62.70;;;;;;4175247;28;20159;-69
2021/11/30 08:33:06;;;;;;;15.60;9.05;;;28.40;62.30;;;;;;4175398;28;20522;-68
2021/11/30 08:35:30;;;;;;;17.20;9.30;;;28.40;62.60;;;;;;4178414;28;20032;-69
2021/11/30 08:37:56;;;;;;;15.98;9.40;;;28.40;62.70;;;;;;4181071;28;20130;-68
2021/11/30 08:40:21;;;;;;;14.90;9.02;;;28.40;63.30;;;;;;4179476;28;20123;-69
2021/11/30 08:42:45;;;;;;;13.30;8.60;;;28.40;63.80;;;;;;4172602;28;20103;-70
2021/11/30 08:45:10;;;;;;;16.52;9.70;;;28.50;64.30;;;;;;4157215;28;20134;-68
2021/11/30 08:47:36;;;;;;;15.85;9.45;;;28.50;64.30;;;;;;4159618;28;20060;-68
2021/11/30 08:50:01;;;;;;;15.00;9.35;;;28.50;64.30;;;;;;4145174;28;20597;-68
2021/11/30 08:52:28;;;;;;;18.05;9.57;;;28.50;64.20;;;;;;4166790;28;20604;-68
2021/11/30 08:54:54;;;;;;;13.18;9.20;;;28.40;64.00;;;;;;4171880;28;20419;-69
2021/11/30 08:57:19;;;;;;;18.10;9.68;;;28.40;63.20;;;;;;4176850;28;20054;-69
2021/11/30 08:59:43;;;;;;;17.77;9.50;;;28.30;63.10;;;;;;4168367;28;20048;-70
2021/11/30 09:02:07;;;;;;;20.77;10.07;;;28.20;63.40;;;;;;4174150;28;20408;-70
2021/11/30 09:04:32;;;;;;;23.42;10.25;;;28.30;64.10;;;;;;4179808;28;20545;-69
2021/11/30 09:06:57;;;;;;;18.05;10.15;;;28.30;64.20;;;;;;4177795;28;20104;-70
2021/11/30 09:09:23;;;;;;;17.67;10.70;;;28.30;64.20;;;;;;4180339;28;20048;-70
2021/11/30 09:12:03;;;;;;;17.25;9.98;;;28.40;64.50;;;;;;4178330;28;20068;-69
2021/11/30 09:14:27;;;;;;;21.98;9.98;;;28.30;64.00;;;;;;4178956;28;20048;-70
2021/11/30 09:16:52;;;;;;;15.55;9.98;;;28.20;63.90;;;;;;4174071;28;20500;-69
2021/11/30 09:19:16;;;;;;;17.67;9.85;;;28.30;64.10;;;;;;4176777;28;20119;-70
2021/11/30 09:21:41;;;;;;;19.52;9.80;;;28.20;64.20;;;;;;4171130;28;20052;-69
2021/11/30 09:24:05;;;;;;;16.92;9.32;;;28.30;64.20;;;;;;4160695;28;20685;-70
2021/11/30 09:26:29;;;;;;;15.75;9.45;;;28.20;63.90;;;;;;4175746;28;20052;-70
2021/11/30 09:28:53;;;;;;;16.42;9.95;;;28.30;64.10;;;;;;4180075;28;20056;-70
2021/11/30 09:31:17;;;;;;;17.75;10.60;;;28.30;64.20;;;;;;4179361;28;20435;-70
2021/11/30 09:33:43;;;;;;;21.83;11.50;;;28.20;63.90;;;;;;4178058;28;20040;-69
2021/11/30 09:36:08;;;;;;;26.90;11.23;;;28.20;64.00;;;;;;4176796;28;20110;-69
2021/11/30 09:38:32;;;;;;;21.67;11.85;;;28.20;64.90;;;;;;4178907;28;20049;-71
2021/11/30 09:41:01;;;;;;;27.38;12.27;;;28.10;64.20;;;;;;4179269;28;20499;-70
2021/11/30 09:43:44;;;;;;;18.58;10.93;;;28.20;64.50;;;;;;4168384;28;20156;-70
2021/11/30 09:46:09;;;;;;;16.83;10.85;;;28.10;64.20;;;;;;4163955;28;20064;-70
2021/11/30 09:48:34;;;;;;;25.25;11.07;;;28.10;64.80;;;;;;4177771;28;20061;-70
2021/11/30 09:51:02;;;;;;;17.25;10.80;;;28.10;65.40;;;;;;4175200;28;20507;-70
2021/11/30 09:53:27;;;;;;;18.65;10.15;;;28.10;65.10;;;;;;4166509;28;20040;-71
2021/11/30 09:55:51;;;;;;;18.90;10.00;;;28.10;65.10;;;;;;4163422;28;20045;-70
2021/11/30 09:58:19;;;;;;;20.60;10.50;;;28.10;65.40;;;;;;4170559;28;20064;-69
2021/11/30 10:00:45;;;;;;;25.15;10.68;;;28.10;65.40;;;;;;4188611;28;20041;-71
2021/11/30 10:03:12;;;;;;;16.50;10.73;;;28.10;65.50;;;;;;4175571;28;20155;-71
2021/11/30 10:05:39;;;;;;;14.85;10.27;;;28.00;65.60;;;;;;4165488;28;20363;-71
2021/11/30 10:08:05;;;;;;;24.95;10.73;;;28.00;65.70;;;;;;4172648;28;20102;-71
2021/11/30 10:10:36;;;;;;;15.80;10.68;;;28.00;66.10;;;;;;4188720;28;20064;-70
2021/11/30 10:13:00;;;;;;;20.83;10.98;;;28.00;66.30;;;;;;4175711;28;20094;-71
2021/11/30 10:15:24;;;;;;;27.42;15.10;;;27.90;66.60;;;;;;4170710;28;20574;-70
2021/11/30 10:17:48;;;;;;;22.95;16.52;;;27.90;66.90;;;;;;4174959;28;20420;-70
2021/11/30 10:20:14;;;;;;;28.92;15.82;;;27.80;67.20;;;;;;4174240;28;20085;-70
2021/11/30 10:22:58;;;;;;;28.42;14.93;;;27.80;67.20;;;;;;4176381;28;20060;-70
2021/11/30 10:25:25;;;;;;;19.83;13.75;;;27.80;67.40;;;;;;4172061;28;20045;-70
2021/11/30 10:27:54;;;;;;;23.05;13.13;;;27.80;67.60;;;;;;4179564;28;20052;-70
2021/11/30 10:30:26;;;;;;;23.50;13.18;;;27.70;67.60;;;;;;4177258;28;20474;-70
2021/11/30 10:32:51;;;;;;;24.13;12.65;;;27.70;68.10;;;;;;4178313;28;20415;-70
2021/11/30 10:35:15;;;;;;;29.25;13.65;;;27.70;68.40;;;;;;4168696;28;20064;-70
2021/11/30 10:37:25;;;;;;;25.58;13.63;;;27.60;68.50;;;;;;4187146;28;20047;-71
2021/11/30 10:39:33;;;;;;;25.45;14.98;;;27.60;68.70;;;;;;4191167;28;20124;-71
2021/11/30 10:41:37;;;;;;;30.20;15.23;;;27.60;68.70;;;;;;4189148;28;20044;-71
2021/11/30 10:43:59;;;;;;;30.58;17.70;;;27.50;68.80;;;;;;4191197;28;20410;-70
2021/11/30 10:46:21;;;;;;;37.03;22.25;;;27.50;69.00;;;;;;4181037;28;20044;-69
2021/11/30 10:48:28;;;;;;;41.75;26.48;;;27.50;69.20;;;;;;4190033;28;20044;-70
2021/11/30 10:50:50;;;;;;;82.10;48.63;;;27.50;69.40;;;;;;4189222;28;20472;-70
2021/11/30 10:52:57;;;;;;;88.32;50.63;;;27.50;69.60;;;;;;4192821;28;20064;-70
2021/11/30 10:55:10;;;;;;;109.95;61.33;;;27.40;69.70;;;;;;4151171;28;20056;-71
2021/11/30 10:57:20;;;;;;;124.35;71.53;;;27.40;69.80;;;;;;4165850;28;20057;-71
2021/11/30 10:59:33;;;;;;;115.80;66.32;;;27.40;70.10;;;;;;4156575;28;20060;-71
2021/11/30 11:01:42;;;;;;;111.97;62.53;;;27.40;70.10;;;;;;4168709;28;20060;-70
2021/11/30 11:04:15;;;;;;;106.45;60.55;;;27.30;70.40;;;;;;4172555;28;20705;-71
2021/11/30 11:06:31;;;;;;;89.55;50.35;;;27.30;71.10;;;;;;4162934;28;20531;-71
2021/11/30 11:08:43;;;;;;;67.50;40.50;;;27.20;71.30;;;;;;4167637;28;20053;-70
2021/11/30 11:10:58;;;;;;;58.72;36.75;;;27.20;71.20;;;;;;4172511;28;20104;-70
2021/11/30 11:13:17;;;;;;;55.13;32.67;;;27.20;71.50;;;;;;4169723;28;20049;-70
2021/11/30 11:15:40;;;;;;;46.45;28.67;;;27.10;71.50;;;;;;4164575;28;20506;-70
2021/11/30 11:17:46;;;;;;;36.90;23.42;;;27.10;71.60;;;;;;4170989;28;20160;-70
2021/11/30 11:19:51;;;;;;;35.58;24.10;;;27.00;71.40;;;;;;4169829;28;20084;-70
2021/11/30 11:21:56;;;;;;;36.72;23.45;;;27.00;71.80;;;;;;4170934;28;20053;-70
2021/11/30 11:24:09;;;;;;;41.88;24.70;;;27.00;72.20;;;;;;4170871;28;20049;-71
2021/11/30 11:26:32;;;;;;;35.88;22.35;;;27.00;72.00;;;;;;4164139;28;20060;-70
2021/11/30 11:28:37;;;;;;;37.22;20.52;;;27.00;71.70;;;;;;4167164;28;20214;-70
2021/11/30 11:31:01;;;;;;;29.40;20.08;;;27.00;71.60;;;;;;4128579;28;20509;-70
2021/11/30 11:33:08;;;;;;;29.42;18.55;;;27.00;71.50;;;;;;4183560;28;20494;-70
2021/11/30 11:35:16;;;;;;;32.80;18.90;;;27.00;71.40;;;;;;4181750;28;20973;-71
2021/11/30 11:37:22;;;;;;;30.58;18.50;;;27.00;71.30;;;;;;4185975;28;20044;-70
2021/11/30 11:39:34;;;;;;;32.03;18.58;;;27.00;71.30;;;;;;4170244;28;20048;-70
2021/11/30 11:41:51;;;;;;;39.50;19.13;;;27.00;71.30;;;;;;4155088;28;20042;-69
2021/11/30 11:43:56;;;;;;;31.08;17.75;;;27.00;71.20;;;;;;4139354;28;20068;-70
2021/11/30 11:46:14;;;;;;;31.25;18.20;;;26.90;71.40;;;;;;4147412;28;20663;-70
2021/11/30 11:48:22;;;;;;;28.65;17.73;;;26.90;72.00;;;;;;4137416;28;20181;-70
2021/11/30 11:50:26;;;;;;;28.70;18.27;;;26.90;71.40;;;;;;4138395;28;20049;-70
2021/11/30 11:52:36;;;;;;;32.88;17.67;;;26.90;71.40;;;;;;4157917;28;20479;-70
2021/11/30 11:55:00;;;;;;;37.33;20.55;;;26.80;71.80;;;;;;4152522;28;20093;-71
2021/11/30 11:57:23;;;;;;;37.55;20.27;;;26.80;71.90;;;;;;4154040;28;20356;-70
2021/11/30 11:59:39;;;;;;;35.72;20.75;;;26.70;72.10;;;;;;4156904;28;20047;-70
2021/11/30 12:01:50;;;;;;;37.90;21.85;;;26.70;72.10;;;;;;4154609;28;20133;-70
2021/11/30 12:03:59;;;;;;;35.10;21.90;;;26.70;72.30;;;;;;4152813;28;20049;-70
2021/11/30 12:06:16;;;;;;;38.42;21.83;;;26.70;72.20;;;;;;4147733;28;20057;-72
2021/11/30 12:08:27;;;;;;;37.53;22.42;;;26.70;72.20;;;;;;4136658;28;20100;-71